Grand Legacy — WDJ2699 — position and weather

sailwx.info

Track history (hours):
 
Tides and Currents Weather Stations Pressure Air Temp Water Temp Dewpoint Dewpoint Depression Visibility Wind Speed Wind Dir Waves Ship Positions

Grand Legacy

Owner: Lastinger, Gary M, Irvine, CA. More information available from US FCC via Universal Licensing System and Coast Guard Vessel Documentation Center.

Last reported at 2018-Jun-02 19:13 UTC. Time now 2018-Jun-19 08:21 UTC.
Position N 26°06' W 080°10'.
Warning: this ship's position is 16 days out of date.

Length 34 m; draft 2 m.

Type: Pleasure craft. MMSI: 367760860.

Date/timePositionNaut miles runAvg speedWind from/ knotsBaromVisibWave heightAir tempDewpointWater temp
2018-Jun-02 19:13N 26°06' W 080°10'0 0.0
2018-Jun-02 19:00N 26°06' W 080°10'0 0.0
2018-Jun-02 18:30N 26°06' W 080°10'2 3.9
2018-Jun-02 18:00N 26°07' W 080°09'2 3.7
2018-Jun-02 17:30N 26°06' W 080°07'5 9.6
2018-Jun-02 17:00N 26°10' W 080°05'2 4.9
2018-Jun-02 16:30N 26°13' W 080°04'2 4.4
2018-Jun-02 16:00N 26°15' W 080°03'3 5.2
2018-Jun-02 15:30N 26°15' W 079°60'1 1.9
2018-Jun-02 15:00N 26°14' W 079°59'1 1.1
2018-Jun-02 14:30N 26°14' W 079°59'510.0
2018-Jun-02 14:00N 26°09' W 079°59'5 9.5
2018-Jun-02 13:30N 26°04' W 080°01'3 6.2
2018-Jun-02 13:01N 26°04' W 080°04'4 7.7
2018-Jun-02 12:31N 26°07' W 080°07'2 3.9
2018-Jun-02 12:01N 26°07' W 080°09'1 2.5
2018-Jun-02 11:30N 26°06' W 080°10'0 0.0
2018-Jun-02 11:00N 26°06' W 080°10'0 0.0
2018-Jun-02 10:31N 26°06' W 080°10'0 0.0
2018-Jun-02 10:00N 26°06' W 080°10'  
Track history (hours):
 
Tides and Currents Weather Stations Pressure Air Temp Water Temp Dewpoint Dewpoint Depression Visibility Wind Speed Wind Dir Waves Ship Positions

Grand Legacy

Owner: Lastinger, Gary M, Irvine, CA. More information available from US FCC via Universal Licensing System and Coast Guard Vessel Documentation Center.

Last reported at 2018-Jun-02 19:13 UTC. Time now 2018-Jun-19 08:21 UTC.
Position N 26°06' W 080°10'.
Warning: this ship's position is 16 days out of date.

Length 34 m; draft 2 m.

Type: Pleasure craft. MMSI: 367760860.

Date/timePositionNaut miles runAvg speedWind from/ knotsBaromVisibWave heightAir tempDewpointWater temp
2018-Jun-02 19:13N 26°06' W 080°10'0 0.0
2018-Jun-02 19:00N 26°06' W 080°10'0 0.0
2018-Jun-02 18:30N 26°06' W 080°10'2 3.9
2018-Jun-02 18:00N 26°07' W 080°09'2 3.7
2018-Jun-02 17:30N 26°06' W 080°07'5 9.6
2018-Jun-02 17:00N 26°10' W 080°05'2 4.9
2018-Jun-02 16:30N 26°13' W 080°04'2 4.4
2018-Jun-02 16:00N 26°15' W 080°03'3 5.2
2018-Jun-02 15:30N 26°15' W 079°60'1 1.9
2018-Jun-02 15:00N 26°14' W 079°59'1 1.1
2018-Jun-02 14:30N 26°14' W 079°59'510.0
2018-Jun-02 14:00N 26°09' W 079°59'5 9.5
2018-Jun-02 13:30N 26°04' W 080°01'3 6.2
2018-Jun-02 13:01N 26°04' W 080°04'4 7.7
2018-Jun-02 12:31N 26°07' W 080°07'2 3.9
2018-Jun-02 12:01N 26°07' W 080°09'1 2.5
2018-Jun-02 11:30N 26°06' W 080°10'0 0.0
2018-Jun-02 11:00N 26°06' W 080°10'0 0.0
2018-Jun-02 10:31N 26°06' W 080°10'0 0.0
2018-Jun-02 10:00N 26°06' W 080°10'  

Dump ship's entire track history